createdAt,value
2023-03-30T00:00:21.118Z,9.30
2023-03-30T00:02:54.632Z,11.70
2023-03-30T00:05:26.164Z,13.00
2023-03-30T00:07:56.075Z,14.30
2023-03-30T00:10:27.656Z,11.00
2023-03-30T00:12:58.564Z,11.87
2023-03-30T00:15:31.078Z,11.63
2023-03-30T00:18:07.629Z,11.07
2023-03-30T00:20:43.265Z,11.40
2023-03-30T00:23:14.040Z,10.73
2023-03-30T00:25:48.103Z,11.37
2023-03-30T00:28:19.107Z,16.93
2023-03-30T00:30:50.465Z,12.70
2023-03-30T00:33:33.600Z,11.40
2023-03-30T00:36:09.564Z,11.33
2023-03-30T00:38:40.953Z,15.63
2023-03-30T00:41:11.721Z,10.93
2023-03-30T00:43:58.144Z,15.33
2023-03-30T00:46:29.283Z,13.77
2023-03-30T00:49:04.466Z,15.27
2023-03-30T00:51:37.353Z,13.60
2023-03-30T00:54:11.511Z,13.27
2023-03-30T00:56:41.983Z,12.87
2023-03-30T00:59:13.401Z,13.73
2023-03-30T01:01:50.532Z,15.83
2023-03-30T01:04:22.578Z,12.53
2023-03-30T01:06:53.281Z,12.73
2023-03-30T01:09:23.445Z,11.93
2023-03-30T01:11:54.545Z,9.57
2023-03-30T01:14:24.810Z,13.93
2023-03-30T01:17:01.996Z,13.00
2023-03-30T01:20:03.336Z,9.97
2023-03-30T01:22:53.065Z,10.20
2023-03-30T01:25:50.717Z,10.30
2023-03-30T01:28:28.092Z,13.97
2023-03-30T01:31:17.678Z,11.53
2023-03-30T01:34:28.276Z,12.97
2023-03-30T01:37:16.971Z,10.90
2023-03-30T01:39:58.377Z,12.30
2023-03-30T01:42:38.577Z,7.93
2023-03-30T01:45:14.152Z,7.33
2023-03-30T01:47:50.926Z,7.10
2023-03-30T01:50:27.158Z,7.63
2023-03-30T01:53:00.984Z,6.13
2023-03-30T01:55:36.612Z,6.80
2023-03-30T01:58:10.498Z,8.70
2023-03-30T02:00:44.143Z,6.20
2023-03-30T02:03:19.396Z,6.13
2023-03-30T02:05:53.232Z,7.80
2023-03-30T02:08:28.175Z,6.07
2023-03-30T02:11:01.181Z,6.10
2023-03-30T02:13:33.599Z,8.07
2023-03-30T02:16:07.509Z,5.70
2023-03-30T02:18:40.220Z,5.97
2023-03-30T02:21:11.036Z,5.03
2023-03-30T02:23:45.811Z,6.27
2023-03-30T02:26:18.804Z,7.23
2023-03-30T02:28:50.167Z,5.87
2023-03-30T02:31:20.595Z,8.83
2023-03-30T02:34:04.849Z,6.33
2023-03-30T02:37:00.642Z,7.33
2023-03-30T02:39:37.856Z,5.60
2023-03-30T02:42:28.146Z,6.80
2023-03-30T02:45:06.872Z,5.97
2023-03-30T02:47:42.000Z,9.87
2023-03-30T02:50:15.701Z,9.37
2023-03-30T02:52:55.024Z,9.40
2023-03-30T02:55:35.021Z,13.33
2023-03-30T02:58:13.152Z,13.03
2023-03-30T03:00:47.509Z,13.27
2023-03-30T03:03:24.452Z,11.03
2023-03-30T03:05:56.352Z,12.80
2023-03-30T03:08:28.572Z,10.07
2023-03-30T03:10:58.532Z,11.33
2023-03-30T03:13:37.229Z,12.10
2023-03-30T03:16:11.268Z,11.70
2023-03-30T03:18:42.856Z,8.33
2023-03-30T03:21:14.846Z,11.63
2023-03-30T03:23:48.681Z,10.93
2023-03-30T03:26:20.633Z,9.83
2023-03-30T03:28:53.112Z,9.63
2023-03-30T03:31:24.765Z,13.70
2023-03-30T03:33:55.162Z,10.70
2023-03-30T03:36:26.965Z,9.07
2023-03-30T03:38:57.494Z,9.83
2023-03-30T03:41:28.906Z,11.27
2023-03-30T03:44:01.307Z,11.43
2023-03-30T03:46:32.751Z,10.37
2023-03-30T03:49:03.084Z,10.83
2023-03-30T03:51:34.027Z,10.00
2023-03-30T03:54:04.579Z,15.27
2023-03-30T03:56:34.985Z,9.30
2023-03-30T03:59:07.606Z,10.33
2023-03-30T04:01:38.112Z,9.93
2023-03-30T04:04:09.285Z,12.57
2023-03-30T04:06:41.480Z,12.70
2023-03-30T04:09:12.108Z,10.10
2023-03-30T04:11:44.572Z,11.20
2023-03-30T04:14:18.692Z,10.33
2023-03-30T04:16:52.920Z,9.57
2023-03-30T04:19:25.723Z,9.90
2023-03-30T04:21:59.083Z,12.33
2023-03-30T04:24:31.816Z,12.80
2023-03-30T04:27:01.273Z,16.13
2023-03-30T04:29:34.197Z,13.73
2023-03-30T04:32:05.383Z,11.40
2023-03-30T04:34:37.290Z,9.77
2023-03-30T04:37:07.789Z,10.57
2023-03-30T04:39:39.106Z,9.97
2023-03-30T04:42:14.467Z,11.63
2023-03-30T04:44:48.632Z,11.03
2023-03-30T04:47:20.170Z,9.97
2023-03-30T04:49:51.233Z,11.73
2023-03-30T04:52:21.004Z,10.03
2023-03-30T04:54:51.260Z,11.07
2023-03-30T04:57:23.657Z,13.67
2023-03-30T04:59:55.630Z,14.60
2023-03-30T05:02:25.834Z,13.57
2023-03-30T05:04:56.434Z,13.97
2023-03-30T05:07:26.732Z,12.90
2023-03-30T05:09:56.977Z,12.70
2023-03-30T05:12:28.523Z,12.60
2023-03-30T05:15:00.070Z,14.13
2023-03-30T05:17:31.132Z,15.30
2023-03-30T05:20:03.075Z,11.90
2023-03-30T05:22:35.362Z,10.43
2023-03-30T05:25:07.503Z,13.90
2023-03-30T05:27:38.196Z,12.37
2023-03-30T05:30:11.297Z,14.23
2023-03-30T05:32:41.752Z,13.10
2023-03-30T05:35:12.700Z,14.70
2023-03-30T05:37:57.795Z,11.43
2023-03-30T05:40:28.029Z,16.33
2023-03-30T05:43:01.451Z,11.03
2023-03-30T05:45:34.349Z,14.13
2023-03-30T05:48:08.291Z,13.07
2023-03-30T05:50:38.669Z,12.53
2023-03-30T05:53:09.117Z,12.13
2023-03-30T05:55:40.495Z,14.20
2023-03-30T05:58:10.052Z,12.40
2023-03-30T06:00:42.199Z,10.70
2023-03-30T06:03:11.993Z,11.00
2023-03-30T06:05:44.348Z,11.10
2023-03-30T06:08:15.122Z,11.00
2023-03-30T06:10:55.793Z,11.00
2023-03-30T06:13:28.917Z,12.13
2023-03-30T06:16:05.013Z,17.20
2023-03-30T06:18:36.375Z,10.77
2023-03-30T06:21:09.018Z,13.37
2023-03-30T06:23:41.205Z,14.20
2023-03-30T06:26:12.203Z,16.53
2023-03-30T06:28:42.771Z,16.40
2023-03-30T06:31:15.302Z,13.43
2023-03-30T06:33:45.717Z,15.70
2023-03-30T06:36:17.746Z,15.70
2023-03-30T06:38:48.952Z,17.23
2023-03-30T06:41:19.037Z,15.03
2023-03-30T06:43:49.328Z,14.90
2023-03-30T06:46:33.532Z,12.67
2023-03-30T06:49:04.658Z,13.83
2023-03-30T06:51:35.758Z,17.63
2023-03-30T06:54:08.174Z,18.57
2023-03-30T06:56:38.768Z,13.30
2023-03-30T06:59:10.324Z,14.17
2023-03-30T07:01:43.095Z,13.90
2023-03-30T07:04:14.433Z,12.70
2023-03-30T07:06:45.440Z,14.63
2023-03-30T07:09:15.433Z,9.00
2023-03-30T07:11:45.435Z,11.43
2023-03-30T07:14:15.748Z,11.73
2023-03-30T07:16:48.829Z,12.00
2023-03-30T07:19:26.688Z,10.90
2023-03-30T07:21:57.692Z,17.07
2023-03-30T07:24:27.746Z,13.10
2023-03-30T07:26:58.929Z,17.40
2023-03-30T07:29:29.585Z,16.07
2023-03-30T07:32:04.143Z,19.47
2023-03-30T07:34:34.874Z,14.00
2023-03-30T07:37:07.664Z,14.63
2023-03-30T07:39:39.331Z,15.63
2023-03-30T07:42:09.145Z,15.93
2023-03-30T07:44:39.273Z,15.10
2023-03-30T07:47:11.585Z,14.23
2023-03-30T07:49:42.603Z,17.10
2023-03-30T07:52:12.969Z,14.77
2023-03-30T07:54:46.982Z,12.23
2023-03-30T07:57:17.447Z,8.93
2023-03-30T07:59:48.704Z,23.43
2023-03-30T08:02:21.074Z,10.23
2023-03-30T08:04:53.245Z,9.40
2023-03-30T08:07:23.526Z,10.27
2023-03-30T08:09:54.363Z,10.70
2023-03-30T08:12:24.425Z,10.80
2023-03-30T08:14:56.415Z,11.73
2023-03-30T08:17:28.558Z,12.07
2023-03-30T08:19:59.142Z,11.30
2023-03-30T08:22:31.158Z,9.43
2023-03-30T08:25:07.395Z,14.87
2023-03-30T08:27:38.810Z,12.30
2023-03-30T08:30:13.615Z,11.17
2023-03-30T08:32:45.675Z,11.03
2023-03-30T08:35:17.732Z,17.40
2023-03-30T08:37:48.308Z,12.83
2023-03-30T08:40:19.973Z,11.17
2023-03-30T08:43:00.965Z,10.23
2023-03-30T08:45:39.054Z,14.10
2023-03-30T08:48:19.759Z,13.37
2023-03-30T08:50:56.047Z,15.53
2023-03-30T08:53:27.034Z,12.13
2023-03-30T08:56:01.115Z,11.30
2023-03-30T08:58:40.392Z,13.83
2023-03-30T09:01:17.857Z,17.90
2023-03-30T09:04:11.437Z,13.77
2023-03-30T09:06:49.283Z,12.97
2023-03-30T09:09:22.188Z,10.23
2023-03-30T09:11:57.585Z,11.83
2023-03-30T09:14:36.919Z,10.27
2023-03-30T09:17:13.534Z,15.20
2023-03-30T09:19:53.427Z,15.40
2023-03-30T09:22:24.845Z,19.27
2023-03-30T09:24:57.136Z,13.40
2023-03-30T09:27:32.803Z,14.30
2023-03-30T09:30:09.618Z,13.30
2023-03-30T09:32:44.385Z,14.17
2023-03-30T09:35:19.362Z,14.07
2023-03-30T09:37:50.284Z,13.73
2023-03-30T09:40:28.219Z,12.70
2023-03-30T09:43:07.258Z,12.87
2023-03-30T09:45:37.957Z,22.67
2023-03-30T09:48:09.424Z,16.43
2023-03-30T09:50:45.228Z,12.10
2023-03-30T09:53:25.280Z,12.60
2023-03-30T09:56:04.564Z,13.70
2023-03-30T09:58:37.304Z,11.70
2023-03-30T10:01:13.336Z,10.23
2023-03-30T10:03:44.629Z,11.43
2023-03-30T10:06:21.969Z,9.80
2023-03-30T10:08:55.416Z,9.73
2023-03-30T10:11:38.870Z,7.93
2023-03-30T10:14:12.730Z,10.50
2023-03-30T10:16:47.859Z,8.60
2023-03-30T10:19:21.183Z,10.53
2023-03-30T10:22:04.662Z,11.33
2023-03-30T10:24:37.613Z,8.03
2023-03-30T10:27:13.649Z,7.50
2023-03-30T10:29:51.170Z,7.43
2023-03-30T10:32:24.912Z,8.67
2023-03-30T10:34:57.309Z,10.43
2023-03-30T10:37:32.560Z,6.37
2023-03-30T10:40:08.414Z,6.97
2023-03-30T10:42:39.834Z,31.67
2023-03-30T10:45:19.587Z,10.63
2023-03-30T10:47:59.427Z,6.90
2023-03-30T10:50:36.076Z,5.00
2023-03-30T10:53:17.595Z,4.97
2023-03-30T10:55:53.269Z,11.07
2023-03-30T10:58:34.465Z,8.23
2023-03-30T11:01:15.146Z,12.87
2023-03-30T11:03:49.687Z,11.93
2023-03-30T11:06:24.128Z,11.60
2023-03-30T11:08:59.704Z,18.00
2023-03-30T11:11:33.271Z,18.57
2023-03-30T11:14:08.558Z,42.93
2023-03-30T11:16:48.014Z,19.07
2023-03-30T11:19:22.630Z,20.30
2023-03-30T11:22:00.215Z,14.00
2023-03-30T11:24:32.822Z,10.97
2023-03-30T11:27:09.158Z,11.67
2023-03-30T11:29:44.822Z,22.23
2023-03-30T11:32:23.768Z,16.30
2023-03-30T11:35:05.232Z,8.23
2023-03-30T11:37:43.542Z,7.93
2023-03-30T11:40:25.532Z,5.23
2023-03-30T11:43:01.391Z,7.93
2023-03-30T11:45:49.152Z,16.27
2023-03-30T11:48:41.721Z,11.13
2023-03-30T11:51:28.932Z,13.10
2023-03-30T11:54:30.197Z,7.20
2023-03-30T11:57:14.303Z,11.93
2023-03-30T11:59:53.090Z,8.97
2023-03-30T12:02:49.473Z,15.90
2023-03-30T12:05:27.901Z,10.63
2023-03-30T12:08:06.319Z,8.17
2023-03-30T12:10:39.371Z,10.17
2023-03-30T12:13:14.853Z,7.90
2023-03-30T12:15:52.398Z,13.20
2023-03-30T12:18:32.093Z,16.57
2023-03-30T12:21:20.601Z,17.90
2023-03-30T12:23:54.869Z,10.53
2023-03-30T12:26:29.176Z,8.83
2023-03-30T12:29:52.509Z,9.83
2023-03-30T12:32:09.804Z,11.23
2023-03-30T12:34:45.409Z,14.47
2023-03-30T12:37:18.436Z,20.20
2023-03-30T12:39:51.128Z,14.90
2023-03-30T12:42:35.813Z,12.57
2023-03-30T12:45:33.600Z,10.90
2023-03-30T12:48:31.160Z,9.03
2023-03-30T12:51:15.551Z,12.80
2023-03-30T12:54:16.336Z,9.77
2023-03-30T12:56:54.139Z,9.70
2023-03-30T13:00:02.517Z,9.50
2023-03-30T13:02:49.097Z,11.47
2023-03-30T13:05:21.874Z,12.63
2023-03-30T13:07:55.436Z,8.27
2023-03-30T13:10:42.168Z,9.77
2023-03-30T13:13:25.778Z,10.03
2023-03-30T13:15:58.752Z,10.20
2023-03-30T13:18:54.497Z,10.53
2023-03-30T13:21:25.918Z,11.43
2023-03-30T13:24:21.382Z,10.67
2023-03-30T13:26:51.769Z,10.43
2023-03-30T13:29:24.496Z,8.60
2023-03-30T13:32:06.390Z,10.33
2023-03-30T13:35:03.034Z,9.13
2023-03-30T13:38:04.077Z,10.60
2023-03-30T13:40:54.295Z,9.43
2023-03-30T13:43:44.818Z,8.63
2023-03-30T13:46:22.782Z,9.70
2023-03-30T13:49:06.558Z,10.80
2023-03-30T13:51:42.056Z,8.10
2023-03-30T13:54:16.259Z,13.53
2023-03-30T13:56:50.419Z,8.10
2023-03-30T13:59:22.754Z,7.77
2023-03-30T14:01:56.167Z,9.20
2023-03-30T14:04:32.641Z,16.63
2023-03-30T14:07:16.804Z,9.03
2023-03-30T14:10:02.474Z,8.80
2023-03-30T14:12:36.430Z,6.90
2023-03-30T14:15:19.843Z,6.43
2023-03-30T14:17:55.997Z,7.33
2023-03-30T14:20:44.612Z,12.13
2023-03-30T14:23:21.020Z,6.83
2023-03-30T14:25:54.978Z,8.13
2023-03-30T14:28:29.172Z,9.80
2023-03-30T14:31:03.319Z,9.63
2023-03-30T14:33:42.152Z,8.53
2023-03-30T14:36:14.203Z,10.70
2023-03-30T14:38:48.800Z,11.87
2023-03-30T14:41:23.155Z,7.70
2023-03-30T14:43:56.925Z,9.40
2023-03-30T14:46:30.361Z,9.40
2023-03-30T14:49:01.596Z,8.30
2023-03-30T14:51:41.139Z,13.47
2023-03-30T14:54:16.592Z,8.23
2023-03-30T14:56:48.789Z,7.43
2023-03-30T14:59:19.860Z,7.30
2023-03-30T15:01:51.105Z,12.63
2023-03-30T15:04:22.804Z,17.67
2023-03-30T15:06:54.609Z,25.83
2023-03-30T15:09:27.715Z,12.53
2023-03-30T15:12:00.124Z,11.57
2023-03-30T15:14:34.553Z,7.77
2023-03-30T15:17:11.724Z,6.70
2023-03-30T15:19:43.564Z,6.37
2023-03-30T15:22:19.100Z,6.97
2023-03-30T15:24:50.810Z,5.93
2023-03-30T15:27:21.242Z,8.27
2023-03-30T15:29:51.072Z,10.30
2023-03-30T15:32:25.449Z,17.67
2023-03-30T15:35:04.235Z,9.63
2023-03-30T15:37:35.052Z,9.57
2023-03-30T15:40:25.033Z,7.60
2023-03-30T15:43:18.252Z,6.93
2023-03-30T15:45:51.015Z,7.60
2023-03-30T15:48:24.807Z,8.60
2023-03-30T15:50:58.646Z,6.50
2023-03-30T15:53:43.718Z,6.67
2023-03-30T15:56:23.203Z,8.57
2023-03-30T15:58:54.915Z,8.23
2023-03-30T16:01:25.844Z,5.40
2023-03-30T16:03:58.660Z,7.93
2023-03-30T16:06:29.599Z,5.40
2023-03-30T16:08:59.658Z,6.60
2023-03-30T16:11:32.584Z,10.80
2023-03-30T16:14:02.702Z,9.00
2023-03-30T16:16:32.741Z,6.47
2023-03-30T16:19:02.955Z,7.70
2023-03-30T16:21:33.461Z,6.20
2023-03-30T16:24:04.096Z,7.30
2023-03-30T16:26:36.282Z,5.13
2023-03-30T16:29:07.575Z,7.33
2023-03-30T16:31:37.972Z,6.90
2023-03-30T16:34:08.079Z,6.43
2023-03-30T16:36:38.662Z,7.70
2023-03-30T16:39:17.922Z,7.60
2023-03-30T16:41:50.952Z,7.73
2023-03-30T16:44:23.037Z,9.60
2023-03-30T16:46:54.172Z,6.13
2023-03-30T16:49:26.401Z,8.67
2023-03-30T16:51:58.145Z,8.13
2023-03-30T16:54:32.431Z,9.87
2023-03-30T16:57:07.255Z,7.10
2023-03-30T16:59:40.491Z,6.43
2023-03-30T17:02:18.181Z,5.47
2023-03-30T17:04:50.428Z,7.67
2023-03-30T17:07:20.131Z,7.33
2023-03-30T17:09:50.799Z,6.90
2023-03-30T17:12:23.269Z,9.57
2023-03-30T17:14:53.457Z,12.40
2023-03-30T17:17:24.085Z,9.97
2023-03-30T17:19:55.186Z,8.00
2023-03-30T17:22:27.285Z,7.77
2023-03-30T17:24:57.654Z,6.67
2023-03-30T17:27:30.037Z,21.17
2023-03-30T17:30:01.082Z,7.00
2023-03-30T17:32:31.082Z,5.47
2023-03-30T17:35:01.374Z,5.47
2023-03-30T17:37:32.198Z,6.57
2023-03-30T17:40:02.969Z,5.83
2023-03-30T17:42:35.523Z,8.07
2023-03-30T17:45:07.287Z,4.90
2023-03-30T17:47:38.459Z,4.17
2023-03-30T17:50:25.178Z,3.93
2023-03-30T17:52:56.099Z,3.67
2023-03-30T17:55:28.605Z,3.10
2023-03-30T17:58:03.188Z,5.17
2023-03-30T18:00:35.834Z,4.73
2023-03-30T18:03:07.464Z,2.60
2023-03-30T18:05:37.943Z,3.60
2023-03-30T18:08:11.944Z,6.13
2023-03-30T18:10:43.696Z,3.50
2023-03-30T18:13:16.111Z,4.77
2023-03-30T18:15:48.896Z,3.63
2023-03-30T18:18:25.304Z,4.10
2023-03-30T18:21:03.630Z,3.17
2023-03-30T18:23:35.941Z,4.93
2023-03-30T18:26:11.297Z,3.70
2023-03-30T18:28:44.528Z,3.70
2023-03-30T18:31:15.916Z,3.47
2023-03-30T18:33:46.884Z,4.20
2023-03-30T18:36:24.486Z,4.73
2023-03-30T18:38:56.886Z,4.80
2023-03-30T18:41:29.275Z,3.80
2023-03-30T18:44:01.158Z,6.73
2023-03-30T18:46:31.838Z,8.90
2023-03-30T18:49:01.777Z,3.37
2023-03-30T18:51:32.316Z,4.73
2023-03-30T18:54:03.524Z,6.53
2023-03-30T18:56:34.273Z,3.63
2023-03-30T18:59:06.970Z,5.20
2023-03-30T19:04:25.857Z,3.80
2023-03-30T19:06:55.923Z,3.83
2023-03-30T19:09:40.174Z,3.33
2023-03-30T19:12:15.414Z,3.93
2023-03-30T19:14:56.602Z,4.00
2023-03-30T19:17:27.885Z,4.77
2023-03-30T19:19:58.230Z,8.00
2023-03-30T19:22:28.648Z,7.20
2023-03-30T19:24:59.133Z,7.30
2023-03-30T19:27:30.474Z,7.87
2023-03-30T19:30:04.492Z,6.17
2023-03-30T19:32:35.545Z,7.10
2023-03-30T19:35:08.555Z,8.10
2023-03-30T19:37:42.573Z,8.13
2023-03-30T19:40:17.028Z,6.20
2023-03-30T19:42:50.348Z,4.60
2023-03-30T19:45:24.728Z,4.83
2023-03-30T19:47:57.551Z,5.33
2023-03-30T19:50:29.988Z,5.73
2023-03-30T19:53:01.975Z,4.13
2023-03-30T19:55:39.826Z,4.13
2023-03-30T19:58:11.319Z,4.13
2023-03-30T20:00:44.412Z,4.03
2023-03-30T20:03:17.961Z,6.80
2023-03-30T20:05:52.641Z,6.90
2023-03-30T20:08:24.707Z,7.93
2023-03-30T20:10:58.940Z,4.93
2023-03-30T20:13:29.618Z,4.23
2023-03-30T20:16:06.448Z,5.83
2023-03-30T20:18:40.409Z,8.50
2023-03-30T20:21:11.662Z,5.50
2023-03-30T20:23:41.450Z,9.50
2023-03-30T20:26:12.056Z,7.77
2023-03-30T20:28:42.255Z,7.67
2023-03-30T20:31:15.574Z,13.27
2023-03-30T20:33:45.968Z,22.07
2023-03-30T20:36:16.818Z,27.80
2023-03-30T20:38:49.910Z,18.77
2023-03-30T20:41:26.709Z,20.63
2023-03-30T20:43:57.610Z,19.23
2023-03-30T20:46:36.740Z,20.40
2023-03-30T20:49:08.577Z,19.90
2023-03-30T20:51:44.186Z,21.50
2023-03-30T20:54:14.493Z,18.40
2023-03-30T20:56:44.946Z,19.07
2023-03-30T20:59:15.197Z,16.50
2023-03-30T21:01:50.414Z,17.13
2023-03-30T21:04:22.039Z,18.73
2023-03-30T21:06:52.964Z,15.70
2023-03-30T21:09:23.819Z,19.00
2023-03-30T21:11:54.513Z,16.47
2023-03-30T21:14:26.105Z,15.33
2023-03-30T21:16:58.231Z,16.60
2023-03-30T21:19:29.969Z,16.83
2023-03-30T21:22:01.829Z,17.10
2023-03-30T21:24:34.866Z,19.87
2023-03-30T21:27:05.207Z,14.33
2023-03-30T21:29:36.731Z,16.70
2023-03-30T21:32:08.443Z,13.60
2023-03-30T21:34:38.457Z,14.33
2023-03-30T21:37:09.515Z,14.23
2023-03-30T21:39:39.748Z,16.67
2023-03-30T21:42:10.314Z,14.30
2023-03-30T21:44:42.526Z,17.57
2023-03-30T21:47:19.918Z,14.17
2023-03-30T21:49:52.949Z,12.30
2023-03-30T21:52:23.404Z,12.20
2023-03-30T21:54:54.572Z,14.97
2023-03-30T21:57:25.589Z,19.67
2023-03-30T21:59:56.470Z,15.63
2023-03-30T22:02:28.526Z,13.37
2023-03-30T22:05:03.038Z,16.20
2023-03-30T22:07:33.220Z,11.77
2023-03-30T22:10:03.797Z,16.83
2023-03-30T22:12:34.841Z,11.10
2023-03-30T22:15:05.482Z,12.77
2023-03-30T22:17:41.900Z,11.33
2023-03-30T22:20:13.653Z,13.10
2023-03-30T22:22:43.822Z,13.00
2023-03-30T22:25:14.089Z,13.67
2023-03-30T22:27:45.146Z,12.77
2023-03-30T22:30:17.060Z,14.10
2023-03-30T22:32:48.741Z,11.13
2023-03-30T22:35:18.934Z,11.40
2023-03-30T22:37:48.740Z,10.23
2023-03-30T22:40:21.964Z,9.30
2023-03-30T22:42:52.302Z,10.50
2023-03-30T22:45:22.486Z,12.93
2023-03-30T22:47:54.904Z,11.60
2023-03-30T22:50:25.827Z,11.80
2023-03-30T22:52:56.953Z,11.97
2023-03-30T22:55:27.604Z,10.33
2023-03-30T22:57:59.670Z,10.83
2023-03-30T23:00:30.049Z,9.90
2023-03-30T23:03:04.422Z,11.80
2023-03-30T23:05:35.256Z,10.67
2023-03-30T23:08:07.481Z,11.27
2023-03-30T23:10:38.280Z,10.10
2023-03-30T23:13:08.445Z,10.93
2023-03-30T23:15:39.170Z,11.13
2023-03-30T23:18:12.607Z,10.77
2023-03-30T23:20:48.179Z,14.43
2023-03-30T23:23:19.225Z,10.80
2023-03-30T23:25:51.185Z,10.10
2023-03-30T23:28:22.060Z,11.57
2023-03-30T23:30:52.684Z,9.30
2023-03-30T23:33:24.976Z,9.10
2023-03-30T23:35:56.273Z,8.27
2023-03-30T23:38:26.664Z,8.80
2023-03-30T23:41:01.887Z,9.63
2023-03-30T23:43:35.799Z,10.87
2023-03-30T23:46:07.445Z,9.70
2023-03-30T23:48:39.012Z,10.00
2023-03-30T23:51:09.644Z,9.63
2023-03-30T23:53:43.091Z,8.70
2023-03-30T23:56:17.767Z,8.10
2023-03-30T23:58:48.336Z,8.23
